Time;durP1;ratioP1;P1;durP2;ratioP2;P2;SDS_P1;SDS_P2;PMS_P1;PMS_P2;Temp;Humidity;BMP_temperature;BMP_pressure;BME280_temperature;BME280_humidity;BME280_pressure;Samples;Min_cycle;Max_cycle;Signal;HPM_P1;HPM_P2
2022/12/07 00:00:06;;;;;;;;;;;;;;;;;;5078198;28;6918;-64
2022/12/07 00:02:39;;;;;;;;;;;;;;;;;;5078174;28;7356;-63
2022/12/07 00:05:04;;;;;;;;;;;;;;;;;;5078169;28;7003;-64
2022/12/07 00:07:42;;;;;;;;;;;;;;;;;;5077796;28;6999;-64
2022/12/07 00:10:07;;;;;;;;;;;;;;;;;;5078079;28;7260;-64
2022/12/07 00:12:35;;;;;;;;;;;;;;;;;;5077793;28;6993;-64
2022/12/07 00:15:01;;;;;;;;;;;;;;;;;;5077989;28;7107;-64
2022/12/07 00:17:27;;;;;;;;;;;;;;;;;;5077683;28;7806;-64
2022/12/07 00:20:21;;;;;;;;;;;;;;;;;;5077806;28;7186;-64
2022/12/07 00:22:47;;;;;;;;;;;;;;;;;;5077930;28;7429;-64
2022/12/07 00:25:12;;;;;;;;;;;;;;;;;;5077842;28;7394;-64
2022/12/07 00:27:46;;;;;;;;;;;;;;;;;;5078100;28;7183;-64
2022/12/07 00:30:11;;;;;;;;;;;;;;;;;;5077275;28;7215;-64
2022/12/07 00:32:37;;;;;;;;;;;;;;;;;;5077649;28;7248;-64
2022/12/07 00:35:03;;;;;;;;;;;;;;;;;;5077748;28;7145;-67
2022/12/07 00:37:36;;;;;;;;;;;;;;;;;;5077518;28;7063;-67
2022/12/07 00:40:01;;;;;;;;;;;;;;;;;;5077814;28;6887;-67
2022/12/07 00:42:27;;;;;;;;;;;;;;;;;;5077431;28;6942;-67
2022/12/07 00:44:52;;;;;;;;;;;;;;;;;;5059615;28;8559;-67
2022/12/07 00:47:18;;;;;;;;;;;;;;;;;;5059362;28;9391;-67
2022/12/07 00:49:45;;;;;;;;;;;;;;;;;;5059344;28;7160;-67
2022/12/07 00:52:11;;;;;;;;;;;;;;;;;;5059941;28;8394;-67
2022/12/07 00:54:37;;;;;;;;;;;;;;;;;;5059084;28;8559;-67
2022/12/07 00:57:16;;;;;;;;;;;;;;;;;;5059168;28;8439;-67
2022/12/07 00:59:42;;;;;;;;;;;;;;;;;;5058995;28;8788;-67
2022/12/07 01:02:07;;;;;;;;;;;;;;;;;;5060041;28;8417;-67
2022/12/07 01:07:36;;;;;;;;;;;;;;;;;;5077073;28;6681;-67
2022/12/07 01:10:02;;;;;;;;;;;;;;;;;;5058928;28;8503;-67
2022/12/07 01:12:27;;;;;;;;;;;;;;;;;;5058901;28;7159;-67
2022/12/07 01:14:53;;;;;;;;;;;;;;;;;;5058821;28;7126;-67
2022/12/07 01:17:19;;;;;;;;;;;;;;;;;;5059919;28;8490;-67
2022/12/07 01:20:17;;;;;;;;;;;;;;;;;;5059548;28;7156;-67
2022/12/07 01:22:44;;;;;;;;;;;;;;;;;;5058595;28;8406;-64
2022/12/07 01:25:11;;;;;;;;;;;;;;;;;;5059245;28;8941;-64
2022/12/07 01:27:37;;;;;;;;;;;;;;;;;;5058601;28;8431;-64
2022/12/07 01:30:04;;;;;;;;;;;;;;;;;;5059052;28;8388;-64
2022/12/07 01:35:33;;;;;;;;;;;;;;;;;;5076327;28;7010;-64
2022/12/07 01:37:59;;;;;;;;;;;;;;;;;;5058534;28;8683;-63
2022/12/07 01:40:24;;;;;;;;;;;;;;;;;;5058216;28;8439;-64
2022/12/07 01:42:50;;;;;;;;;;;;;;;;;;5076530;28;7022;-64
2022/12/07 01:45:18;;;;;;;;;;;;;;;;;;5077202;28;6798;-63
2022/12/07 01:47:53;;;;;;;;;;;;;;;;;;5076328;28;6991;-64
2022/12/07 01:50:19;;;;;;;;;;;;;;;;;;5076115;28;7020;-64
2022/12/07 01:52:49;;;;;;;;;;;;;;;;;;5076222;28;7088;-64
2022/12/07 01:55:28;;;;;;;;;;;;;;;;;;5076182;28;7218;-64
2022/12/07 01:57:55;;;;;;;;;;;;;;;;;;5076202;28;7029;-63
2022/12/07 02:00:21;;;;;;;;;;;;;;;;;;5075566;28;7056;-64
2022/12/07 02:03:08;;;;;;;;;;;;;;;;;;5076306;28;7192;-64
2022/12/07 02:05:37;;;;;;;;;;;;;;;;;;5075324;28;7482;-64
2022/12/07 02:08:03;;;;;;;;;;;;;;;;;;5075913;28;7053;-64
2022/12/07 02:10:31;;;;;;;;;;;;;;;;;;5075694;28;6978;-64
2022/12/07 02:13:01;;;;;;;;;;;;;;;;;;5075901;28;7682;-64
2022/12/07 02:15:35;;;;;;;;;;;;;;;;;;5075715;28;6934;-64
2022/12/07 02:18:07;;;;;;;;;;;;;;;;;;5075762;28;7157;-64
2022/12/07 02:20:32;;;;;;;;;;;;;;;;;;5075509;28;7160;-64
2022/12/07 02:23:22;;;;;;;;;;;;;;;;;;5075633;28;6940;-63
2022/12/07 02:26:24;;;;;;;;;;;;;;;;;;5075310;28;6914;-64
2022/12/07 02:32:12;;;;;;;;;;;;;;;;;;5075551;28;6903;-67
2022/12/07 02:34:47;;;;;;;;;;;;;;;;;;5075466;28;7093;-67
2022/12/07 02:37:42;;;;;;;;;;;;;;;;;;5075438;28;7475;-67
2022/12/07 02:40:17;;;;;;;;;;;;;;;;;;5057861;28;6863;-67
2022/12/07 02:42:54;;;;;;;;;;;;;;;;;;5075242;28;7161;-67
2022/12/07 02:45:23;;;;;;;;;;;;;;;;;;5075048;28;7047;-67
2022/12/07 02:47:52;;;;;;;;;;;;;;;;;;5075390;28;7088;-67
2022/12/07 02:50:19;;;;;;;;;;;;;;;;;;5075116;28;7065;-64
2022/12/07 02:52:47;;;;;;;;;;;;;;;;;;5074857;28;7181;-64
2022/12/07 02:55:17;;;;;;;;;;;;;;;;;;5074958;28;6917;-63
2022/12/07 02:57:43;;;;;;;;;;;;;;;;;;5075226;28;7125;-64
2022/12/07 03:00:15;;;;;;;;;;;;;;;;;;5074888;28;7203;-64
2022/12/07 03:05:59;;;;;;;;;;;;;;;;;;5074722;28;6693;-64
2022/12/07 03:08:28;;;;;;;;;;;;;;;;;;5074923;28;7185;-64
2022/12/07 03:10:53;;;;;;;;;;;;;;;;;;5074718;28;7096;-64
2022/12/07 03:13:19;;;;;;;;;;;;;;;;;;5074700;28;6976;-64
2022/12/07 03:15:45;;;;;;;;;;;;;;;;;;5074934;28;7180;-63
2022/12/07 03:18:13;;;;;;;;;;;;;;;;;;5073899;28;6965;-64
2022/12/07 03:20:42;;;;;;;;;;;;;;;;;;5074727;28;7047;-64
2022/12/07 03:23:10;;;;;;;;;;;;;;;;;;5074667;28;7126;-64
2022/12/07 03:25:40;;;;;;;;;;;;;;;;;;5074833;28;7049;-64
2022/12/07 03:28:34;;;;;;;;;;;;;;;;;;5074769;28;7286;-64
2022/12/07 03:31:06;;;;;;;;;;;;;;;;;;5075602;28;7171;-64
2022/12/07 03:33:38;;;;;;;;;;;;;;;;;;5074772;28;7421;-64
2022/12/07 03:36:31;;;;;;;;;;;;;;;;;;5074310;28;7266;-64
2022/12/07 03:39:15;;;;;;;;;;;;;;;;;;4993188;28;7458;-63
2022/12/07 03:41:41;;;;;;;;;;;;;;;;;;4993210;28;7423;-66
2022/12/07 03:44:15;;;;;;;;;;;;;;;;;;4993254;28;7069;-67
2022/12/07 03:46:43;;;;;;;;;;;;;;;;;;4993107;28;7015;-67
2022/12/07 03:49:37;;;;;;;;;;;;;;;;;;4992938;28;7016;-67
2022/12/07 03:52:03;;;;;;;;;;;;;;;;;;4992859;28;7210;-67
2022/12/07 03:54:41;;;;;;;;;;;;;;;;;;4992990;28;7111;-67
2022/12/07 03:57:10;;;;;;;;;;;;;;;;;;4993029;28;7373;-67
2022/12/07 03:59:46;;;;;;;;;;;;;;;;;;4992805;28;7352;-67
2022/12/07 04:02:13;;;;;;;;;;;;;;;;;;4993960;28;6828;-67
2022/12/07 04:05:11;;;;;;;;;;;;;;;;;;5012387;28;8669;-67
2022/12/07 04:07:37;;;;;;;;;;;;;;;;;;5012617;28;6849;-67
2022/12/07 04:10:04;;;;;;;;;;;;;;;;;;5012499;28;7361;-67
2022/12/07 04:12:37;;;;;;;;;;;;;;;;;;5012982;28;7396;-67
2022/12/07 04:15:03;;;;;;;;;;;;;;;;;;5025359;28;7025;-67
2022/12/07 04:17:29;;;;;;;;;;;;;;;;;;5074153;28;7042;-67
2022/12/07 04:19:55;;;;;;;;;;;;;;;;;;5073778;28;7097;-67
2022/12/07 04:22:59;;;;;;;;;;;;;;;;;;5074118;28;7181;-63
2022/12/07 04:25:24;;;;;;;;;;;;;;;;;;5060503;28;7033;-63
2022/12/07 04:27:50;;;;;;;;;;;;;;;;;;5094690;28;7441;-63
2022/12/07 04:30:15;;;;;;;;;;;;;;;;;;5098241;28;7023;-63
2022/12/07 04:32:41;;;;;;;;;;;;;;;;;;5098131;28;7385;-63
2022/12/07 04:35:07;;;;;;;;;;;;;;;;;;5097897;28;7098;-63
2022/12/07 04:37:33;;;;;;;;;;;;;;;;;;5098887;28;7025;-63
2022/12/07 04:39:59;;;;;;;;;;;;;;;;;;5097936;28;7019;-63
2022/12/07 04:42:46;;;;;;;;;;;;;;;;;;5098077;28;7280;-64
2022/12/07 04:45:11;;;;;;;;;;;;;;;;;;5097509;28;8187;-64
2022/12/07 04:47:37;;;;;;;;;;;;;;;;;;5097882;28;7170;-63
2022/12/07 04:50:03;;;;;;;;;;;;;;;;;;5097675;28;7179;-63
2022/12/07 04:52:29;;;;;;;;;;;;;;;;;;5097576;28;7160;-63
2022/12/07 04:54:55;;;;;;;;;;;;;;;;;;5097593;28;7020;-64
2022/12/07 04:57:20;;;;;;;;;;;;;;;;;;5097573;28;7088;-63
2022/12/07 05:02:50;;;;;;;;;;;;;;;;;;5097585;28;7001;-64
2022/12/07 05:05:16;;;;;;;;;;;;;;;;;;5079367;28;8900;-63
2022/12/07 05:07:41;;;;;;;;;;;;;;;;;;5079236;28;8716;-63
2022/12/07 05:10:09;;;;;;;;;;;;;;;;;;5097054;28;6966;-64
2022/12/07 05:12:34;;;;;;;;;;;;;;;;;;5097406;28;7254;-64
2022/12/07 05:15:00;;;;;;;;;;;;;;;;;;5097255;28;7085;-64
2022/12/07 05:17:42;;;;;;;;;;;;;;;;;;5098017;28;7145;-64
2022/12/07 05:20:09;;;;;;;;;;;;;;;;;;5097438;28;7533;-64
2022/12/07 05:22:35;;;;;;;;;;;;;;;;;;5097097;28;7139;-64
2022/12/07 05:25:02;;;;;;;;;;;;;;;;;;5096974;28;7065;-64
2022/12/07 05:27:28;;;;;;;;;;;;;;;;;;5097066;28;7251;-64
2022/12/07 05:29:53;;;;;;;;;;;;;;;;;;5096960;28;6902;-64
2022/12/07 05:32:19;;;;;;;;;;;;;;;;;;5096789;28;7210;-64
2022/12/07 05:34:45;;;;;;;;;;;;;;;;;;5097063;28;7056;-64
2022/12/07 05:37:23;;;;;;;;;;;;;;;;;;5096749;28;7028;-63
2022/12/07 05:39:48;;;;;;;;;;;;;;;;;;5095599;28;7073;-64
2022/12/07 05:42:14;;;;;;;;;;;;;;;;;;5096772;28;7073;-64
2022/12/07 05:44:46;;;;;;;;;;;;;;;;;;5096691;28;7138;-64
2022/12/07 05:47:14;;;;;;;;;;;;;;;;;;5097125;28;7111;-64
2022/12/07 05:49:39;;;;;;;;;;;;;;;;;;5096492;28;7189;-64
2022/12/07 05:52:06;;;;;;;;;;;;;;;;;;5096471;28;7102;-67
2022/12/07 05:54:44;;;;;;;;;;;;;;;;;;5096663;28;7015;-67
2022/12/07 05:57:10;;;;;;;;;;;;;;;;;;5096322;28;7138;-67
2022/12/07 05:59:36;;;;;;;;;;;;;;;;;;5096600;28;6806;-67
2022/12/07 06:02:04;;;;;;;;;;;;;;;;;;5096316;28;7147;-67
2022/12/07 06:04:32;;;;;;;;;;;;;;;;;;5095851;28;7052;-67
2022/12/07 06:06:58;;;;;;;;;;;;;;;;;;5096361;28;7143;-67
2022/12/07 06:09:40;;;;;;;;;;;;;;;;;;5096160;28;6921;-67
2022/12/07 06:14:51;;;;;;;;;;;;;;;;;;5096035;28;7549;-67
2022/12/07 06:17:19;;;;;;;;;;;;;;;;;;5096063;28;7075;-67
2022/12/07 06:19:44;;;;;;;;;;;;;;;;;;5096023;28;7194;-67
2022/12/07 06:22:11;;;;;;;;;;;;;;;;;;5096001;28;7263;-67
2022/12/07 06:24:38;;;;;;;;;;;;;;;;;;5095668;28;7369;-67
2022/12/07 06:27:04;;;;;;;;;;;;;;;;;;5092312;28;7051;-67
2022/12/07 06:29:32;;;;;;;;;;;;;;;;;;5095535;28;6905;-67
2022/12/07 06:31:57;;;;;;;;;;;;;;;;;;5096366;28;7275;-67
2022/12/07 06:34:35;;;;;;;;;;;;;;;;;;5095733;28;7102;-67
2022/12/07 06:37:01;;;;;;;;;;;;;;;;;;5095666;28;7052;-67
2022/12/07 06:39:28;;;;;;;;;;;;;;;;;;5095264;28;6981;-67
2022/12/07 06:44:56;;;;;;;;;;;;;;;;;;5095307;28;6917;-68
2022/12/07 06:47:28;;;;;;;;;;;;;;;;;;5095468;28;7124;-67
2022/12/07 06:49:54;;;;;;;;;;;;;;;;;;5095303;28;7025;-70
2022/12/07 06:52:19;;;;;;;;;;;;;;;;;;5094775;28;7864;-71
2022/12/07 06:55:07;;;;;;;;;;;;;;;;;;5095064;28;6920;-75
2022/12/07 06:57:32;;;;;;;;;;;;;;;;;;5095327;28;7261;-74
2022/12/07 06:59:58;;;;;;;;;;;;;;;;;;5095162;28;7125;-74
2022/12/07 07:02:24;;;;;;;;;;;;;;;;;;5095243;28;7205;-74
2022/12/07 07:04:49;;;;;;;;;;;;;;;;;;5094956;28;6988;-73
2022/12/07 07:07:40;;;;;;;;;;;;;;;;;;5081322;28;7394;-69
2022/12/07 07:10:06;;;;;;;;;;;;;;;;;;5074688;28;7238;-68
2022/12/07 07:24:35;;;;;;;;;;;;;;;;;;5095087;28;7042;-68
2022/12/07 07:27:00;;;;;;;;;;;;;;;;;;5088275;28;7048;-68
2022/12/07 07:29:29;;;;;;;;;;;;;;;;;;5094493;28;7105;-68
2022/12/07 07:31:55;;;;;;;;;;;;;;;;;;5094577;28;7155;-68
2022/12/07 07:34:31;;;;;;;;;;;;;;;;;;5094849;28;7092;-68
2022/12/07 07:36:57;;;;;;;;;;;;;;;;;;5077675;28;7103;-71
2022/12/07 07:42:53;;;;;;;;;;;;;;;;;;5094558;28;6988;-77
2022/12/07 07:45:20;;;;;;;;;;;;;;;;;;5094178;28;7005;-77
2022/12/07 07:47:46;;;;;;;;;;;;;;;;;;5094781;28;6931;-77
2022/12/07 07:50:23;;;;;;;;;;;;;;;;;;5057781;28;6862;-77
2022/12/07 07:52:49;;;;;;;;;;;;;;;;;;5056269;28;7234;-77
2022/12/07 07:55:15;;;;;;;;;;;;;;;;;;5074336;28;7069;-77
2022/12/07 07:57:41;;;;;;;;;;;;;;;;;;5073695;28;7051;-77
2022/12/07 08:00:10;;;;;;;;;;;;;;;;;;5074072;28;7049;-77
2022/12/07 08:02:35;;;;;;;;;;;;;;;;;;5074781;28;7225;-77
2022/12/07 08:05:02;;;;;;;;;;;;;;;;;;5078540;28;7151;-77
2022/12/07 08:07:28;;;;;;;;;;;;;;;;;;5080502;28;7138;-76
2022/12/07 08:10:14;;;;;;;;;;;;;;;;;;5098510;28;6803;-76
2022/12/07 08:13:10;;;;;;;;;;;;;;;;;;5098166;28;7445;-76
2022/12/07 08:18:27;;;;;;;;;;;;;;;;;;5098749;28;7013;-77
2022/12/07 08:21:00;;;;;;;;;;;;;;;;;;5097834;28;6892;-77
2022/12/07 08:23:27;;;;;;;;;;;;;;;;;;5098348;28;7199;-77
2022/12/07 08:25:52;;;;;;;;;;;;;;;;;;5097172;28;7169;-77
2022/12/07 08:28:18;;;;;;;;;;;;;;;;;;5097808;28;7194;-77
2022/12/07 08:31:01;;;;;;;;;;;;;;;;;;5097840;28;7521;-77
2022/12/07 08:33:27;;;;;;;;;;;;;;;;;;5098187;28;7148;-77
2022/12/07 08:42:39;;;;;;;;;;;;;;;;;;5091947;28;6680;-77
2022/12/07 08:45:12;;;;;;;;;;;;;;;;;;5076957;28;6974;-77
2022/12/07 08:47:56;;;;;;;;;;;;;;;;;;5074748;28;7160;-77
2022/12/07 08:50:22;;;;;;;;;;;;;;;;;;5077332;28;7027;-77
2022/12/07 08:53:07;;;;;;;;;;;;;;;;;;5077457;28;7142;-77
2022/12/07 08:55:34;;;;;;;;;;;;;;;;;;5077270;28;7137;-77
2022/12/07 08:58:07;;;;;;;;;;;;;;;;;;5077155;28;7082;-77
2022/12/07 09:00:32;;;;;;;;;;;;;;;;;;5076672;28;7130;-77
2022/12/07 09:02:58;;;;;;;;;;;;;;;;;;5077693;28;7526;-77
2022/12/07 09:05:24;;;;;;;;;;;;;;;;;;5076568;28;7145;-77
2022/12/07 09:08:12;;;;;;;;;;;;;;;;;;5077430;28;7131;-77
2022/12/07 09:10:38;;;;;;;;;;;;;;;;;;5076484;28;6945;-77
2022/12/07 09:13:24;;;;;;;;;;;;;;;;;;5076981;28;7403;-77
2022/12/07 09:15:49;;;;;;;;;;;;;;;;;;5076993;28;7384;-77
2022/12/07 09:18:21;;;;;;;;;;;;;;;;;;5077167;28;7162;-77
2022/12/07 09:20:50;;;;;;;;;;;;;;;;;;5096143;28;7116;-77
2022/12/07 09:23:52;;;;;;;;;;;;;;;;;;5096050;28;6916;-77
2022/12/07 09:26:29;;;;;;;;;;;;;;;;;;5096568;28;7101;-77
2022/12/07 09:28:58;;;;;;;;;;;;;;;;;;5076689;28;7160;-77
2022/12/07 09:37:18;;;;;;;;;;;;;;;;;;5076302;28;7019;-77
2022/12/07 09:39:45;;;;;;;;;;;;;;;;;;5076089;28;7044;-77
2022/12/07 09:45:38;;;;;;;;;;;;;;;;;;5076472;28;6796;-77
2022/12/07 09:48:04;;;;;;;;;;;;;;;;;;5076317;28;7345;-77
2022/12/07 09:53:34;;;;;;;;;;;;;;;;;;5076250;28;6838;-77
2022/12/07 09:56:30;;;;;;;;;;;;;;;;;;5076045;28;7165;-77
2022/12/07 09:59:01;;;;;;;;;;;;;;;;;;5075574;28;7721;-77
2022/12/07 10:04:30;;;;;;;;;;;;;;;;;;5095958;28;6910;-76
2022/12/07 10:06:56;;;;;;;;;;;;;;;;;;5096301;28;6969;-77
2022/12/07 10:09:53;;;;;;;;;;;;;;;;;;5095723;28;7233;-77
2022/12/07 10:12:18;;;;;;;;;;;;;;;;;;5075759;28;7422;-77
2022/12/07 10:15:03;;;;;;;;;;;;;;;;;;5073584;28;7411;-77
2022/12/07 10:17:31;;;;;;;;;;;;;;;;;;5075376;28;8621;-77
2022/12/07 10:20:13;;;;;;;;;;;;;;;;;;5075675;28;7432;-77
2022/12/07 10:22:38;;;;;;;;;;;;;;;;;;5075421;28;7048;-77
2022/12/07 10:28:15;;;;;;;;;;;;;;;;;;5061140;28;7047;-77
2022/12/07 10:31:04;;;;;;;;;;;;;;;;;;5055126;28;7171;-77
2022/12/07 10:33:32;;;;;;;;;;;;;;;;;;5055328;28;6876;-77
2022/12/07 10:35:58;;;;;;;;;;;;;;;;;;5055415;28;7142;-77
2022/12/07 10:38:26;;;;;;;;;;;;;;;;;;5055257;28;7068;-77
2022/12/07 10:41:07;;;;;;;;;;;;;;;;;;5054964;28;7299;-77
2022/12/07 10:43:34;;;;;;;;;;;;;;;;;;5054804;28;7270;-77
2022/12/07 10:48:58;;;;;;;;;;;;;;;;;;5055436;28;6961;-79
2022/12/07 10:51:51;;;;;;;;;;;;;;;;;;5055171;28;7262;-76
2022/12/07 10:54:28;;;;;;;;;;;;;;;;;;5055061;28;7726;-75
2022/12/07 10:57:16;;;;;;;;;;;;;;;;;;5054884;28;7289;-78
2022/12/07 10:59:54;;;;;;;;;;;;;;;;;;5054842;28;7266;-79
2022/12/07 11:05:27;;;;;;;;;;;;;;;;;;5055159;28;6765;-81
2022/12/07 11:07:56;;;;;;;;;;;;;;;;;;5054796;28;7781;-87
2022/12/07 11:10:55;;;;;;;;;;;;;;;;;;5053687;28;8744;-77
2022/12/07 11:13:30;;;;;;;;;;;;;;;;;;5054337;28;8070;-78
2022/12/07 11:16:19;;;;;;;;;;;;;;;;;;5054711;28;7433;-77
2022/12/07 11:35:54;;;;;;;;;;;;;;;;;;5072359;28;6976;-76
2022/12/07 11:41:57;;;;;;;;;;;;;;;;;;5031834;28;6891;-76
2022/12/07 11:50:27;;;;;;;;;;;;;;;;;;5031654;28;6673;-76
2022/12/07 11:53:00;;;;;;;;;;;;;;;;;;5015969;28;7715;-75
2022/12/07 11:55:58;;;;;;;;;;;;;;;;;;5011869;28;7210;-76
2022/12/07 11:58:29;;;;;;;;;;;;;;;;;;5011747;28;7251;-76
2022/12/07 12:01:33;;;;;;;;;;;;;;;;;;5011439;28;7122;-76
2022/12/07 12:04:10;;;;;;;;;;;;;;;;;;5009406;28;7100;-76
2022/12/07 12:06:40;;;;;;;;;;;;;;;;;;5009345;28;7085;-76
2022/12/07 12:09:11;;;;;;;;;;;;;;;;;;5009392;28;7167;-75
2022/12/07 12:11:56;;;;;;;;;;;;;;;;;;5009342;28;7433;-76
2022/12/07 12:14:24;;;;;;;;;;;;;;;;;;5009501;28;7041;-76
2022/12/07 12:17:08;;;;;;;;;;;;;;;;;;5008906;28;7192;-76
2022/12/07 12:19:52;;;;;;;;;;;;;;;;;;5009464;28;7182;-76
2022/12/07 12:22:21;;;;;;;;;;;;;;;;;;5009158;28;7350;-76
2022/12/07 12:24:52;;;;;;;;;;;;;;;;;;5009298;28;7049;-76
2022/12/07 12:27:24;;;;;;;;;;;;;;;;;;5008553;28;7211;-76
2022/12/07 12:29:55;;;;;;;;;;;;;;;;;;5025573;28;7096;-76
2022/12/07 12:35:30;;;;;;;;;;;;;;;;;;5023402;28;6705;-76
2022/12/07 12:41:16;;;;;;;;;;;;;;;;;;4997890;28;6678;-76
2022/12/07 12:43:44;;;;;;;;;;;;;;;;;;4997838;28;7403;-76
2022/12/07 12:46:35;;;;;;;;;;;;;;;;;;4997742;28;7882;-76
2022/12/07 12:49:16;;;;;;;;;;;;;;;;;;4997924;28;7155;-76
2022/12/07 12:55:01;;;;;;;;;;;;;;;;;;4997529;28;7022;-76
2022/12/07 12:57:28;;;;;;;;;;;;;;;;;;4997346;28;7007;-76
2022/12/07 13:00:14;;;;;;;;;;;;;;;;;;4997200;28;7132;-75
2022/12/07 13:03:00;;;;;;;;;;;;;;;;;;4997502;28;7056;-75
2022/12/07 13:05:28;;;;;;;;;;;;;;;;;;4996220;28;7368;-74
2022/12/07 13:08:14;;;;;;;;;;;;;;;;;;4997451;28;7392;-75
2022/12/07 13:10:42;;;;;;;;;;;;;;;;;;4997398;28;7186;-75
2022/12/07 13:16:11;;;;;;;;;;;;;;;;;;4997023;28;6709;-77
2022/12/07 13:18:38;;;;;;;;;;;;;;;;;;4997194;28;7155;-77
2022/12/07 13:21:07;;;;;;;;;;;;;;;;;;4997014;28;7463;-77
2022/12/07 13:26:56;;;;;;;;;;;;;;;;;;4996856;28;6814;-78
2022/12/07 13:29:22;;;;;;;;;;;;;;;;;;4997153;28;7123;-77
2022/12/07 13:34:51;;;;;;;;;;;;;;;;;;4994180;28;6677;-77
2022/12/07 13:37:40;;;;;;;;;;;;;;;;;;4996883;28;7386;-78
2022/12/07 13:40:19;;;;;;;;;;;;;;;;;;4996871;28;7956;-77
2022/12/07 13:42:49;;;;;;;;;;;;;;;;;;4997234;28;7283;-77
2022/12/07 13:48:18;;;;;;;;;;;;;;;;;;4995778;28;7044;-78
2022/12/07 13:50:49;;;;;;;;;;;;;;;;;;4996379;28;6819;-80
2022/12/07 13:53:15;;;;;;;;;;;;;;;;;;4996681;28;7425;-79
2022/12/07 13:55:46;;;;;;;;;;;;;;;;;;4996677;28;8340;-78
2022/12/07 13:58:12;;;;;;;;;;;;;;;;;;4996599;28;6976;-79
2022/12/07 14:00:40;;;;;;;;;;;;;;;;;;4996591;28;7267;-80
2022/12/07 14:12:40;;;;;;;;;;;;;;;;;;4996077;28;6992;-76
2022/12/07 14:20:29;;;;;;;;;;;;;;;;;;5076342;23;7211;-74
2022/12/07 14:22:55;;;;;;;;;;;;;;;;;;5128358;23;7121;-70
2022/12/07 14:25:24;;;;;;;;;;;;;;;;;;5013631;28;8709;-69
2022/12/07 14:27:55;;;;;;;;;;;;;;;;;;5015594;28;7023;-69
2022/12/07 14:30:57;;;;;;;;;;;;;;;;;;5015571;28;7413;-69
2022/12/07 14:33:24;;;;;;;;;;;;;;;;;;5015483;28;7348;-69
2022/12/07 14:38:55;;;;;;;;;;;;;;;;;;5015190;28;6984;-68
2022/12/07 14:44:42;;;;;;;;;;;;;;;;;;5014552;28;6990;-68
2022/12/07 14:47:10;;;;;;;;;;;;;;;;;;5027029;28;7306;-68
2022/12/07 14:55:39;;;;;;;;;;;;;;;;;;5015379;28;7275;-68
2022/12/07 15:01:27;;;;;;;;;;;;;;;;;;5014923;28;6734;-69
2022/12/07 15:03:58;;;;;;;;;;;;;;;;;;5015605;28;6817;-69
2022/12/07 15:06:28;;;;;;;;;;;;;;;;;;5030568;28;7388;-68
2022/12/07 15:08:54;;;;;;;;;;;;;;;;;;5014899;28;7325;-68
2022/12/07 15:11:21;;;;;;;;;;;;;;;;;;5015084;28;8264;-69
2022/12/07 15:16:53;;;;;;;;;;;;;;;;;;5015304;28;7487;-68
2022/12/07 15:19:23;;;;;;;;;;;;;;;;;;5014517;28;6951;-68
2022/12/07 15:24:52;;;;;;;;;;;;;;;;;;5010329;28;6674;-68
2022/12/07 15:27:45;;;;;;;;;;;;;;;;;;5014763;28;7173;-67
2022/12/07 15:30:10;;;;;;;;;;;;;;;;;;5014441;28;7358;-68
2022/12/07 15:32:55;;;;;;;;;;;;;;;;;;5014291;28;7160;-68
2022/12/07 15:35:22;;;;;;;;;;;;;;;;;;5012877;28;7238;-67
2022/12/07 15:37:52;;;;;;;;;;;;;;;;;;5014262;28;7213;-67
2022/12/07 15:40:20;;;;;;;;;;;;;;;;;;5017333;28;7298;-67
2022/12/07 15:42:46;;;;;;;;;;;;;;;;;;5014707;28;7110;-67
2022/12/07 15:45:14;;;;;;;;;;;;;;;;;;5015310;28;7049;-67
2022/12/07 15:47:41;;;;;;;;;;;;;;;;;;5014381;28;6960;-67
2022/12/07 15:50:09;;;;;;;;;;;;;;;;;;5029797;28;7187;-68
2022/12/07 15:52:35;;;;;;;;;;;;;;;;;;5014354;28;6938;-68
2022/12/07 15:55:03;;;;;;;;;;;;;;;;;;5015115;28;7052;-68
2022/12/07 15:57:34;;;;;;;;;;;;;;;;;;5014656;28;7190;-68
2022/12/07 16:00:14;;;;;;;;;;;;;;;;;;5014215;28;7053;-68
2022/12/07 16:02:40;;;;;;;;;;;;;;;;;;5014548;28;7338;-68
2022/12/07 16:05:05;;;;;;;;;;;;;;;;;;5015278;28;7413;-67
2022/12/07 16:07:31;;;;;;;;;;;;;;;;;;5014210;28;7185;-68
2022/12/07 16:09:57;;;;;;;;;;;;;;;;;;5030168;28;7196;-68
2022/12/07 16:12:22;;;;;;;;;;;;;;;;;;5018206;28;7407;-68
2022/12/07 16:17:40;;;;;;;;;;;;;;;;;;5018124;28;6971;-67
2022/12/07 16:20:08;;;;;;;;;;;;;;;;;;5018004;28;7080;-68
2022/12/07 16:22:57;;;;;;;;;;;;;;;;;;5018367;28;7157;-68
2022/12/07 16:25:23;;;;;;;;;;;;;;;;;;5018114;28;7121;-67
2022/12/07 16:27:48;;;;;;;;;;;;;;;;;;5017920;28;7147;-68
2022/12/07 16:30:15;;;;;;;;;;;;;;;;;;5017795;28;7367;-68
2022/12/07 16:32:42;;;;;;;;;;;;;;;;;;5017777;28;7340;-68
2022/12/07 16:35:08;;;;;;;;;;;;;;;;;;5017631;28;7373;-68
2022/12/07 16:37:35;;;;;;;;;;;;;;;;;;5017711;28;7328;-67
2022/12/07 16:40:00;;;;;;;;;;;;;;;;;;5032697;28;8455;-67
2022/12/07 16:42:26;;;;;;;;;;;;;;;;;;5017701;28;7127;-67
2022/12/07 16:44:52;;;;;;;;;;;;;;;;;;5017590;28;7062;-68
2022/12/07 16:47:18;;;;;;;;;;;;;;;;;;5017650;28;7342;-67
2022/12/07 16:49:44;;;;;;;;;;;;;;;;;;5017517;28;7107;-68
2022/12/07 16:52:09;;;;;;;;;;;;;;;;;;5017817;28;7378;-68
2022/12/07 16:54:36;;;;;;;;;;;;;;;;;;5018028;28;6922;-68
2022/12/07 16:57:02;;;;;;;;;;;;;;;;;;5033715;28;8808;-67
2022/12/07 16:59:27;;;;;;;;;;;;;;;;;;5017303;28;7207;-68
2022/12/07 17:01:57;;;;;;;;;;;;;;;;;;5015347;28;7323;-68
2022/12/07 17:04:23;;;;;;;;;;;;;;;;;;5016251;28;7120;-67
2022/12/07 17:06:49;;;;;;;;;;;;;;;;;;5016913;28;7959;-68
2022/12/07 17:09:46;;;;;;;;;;;;;;;;;;5017095;28;6957;-68
2022/12/07 17:12:19;;;;;;;;;;;;;;;;;;5017092;28;7381;-68
2022/12/07 17:17:28;;;;;;;;;;;;;;;;;;5017240;28;6901;-67
2022/12/07 17:19:54;;;;;;;;;;;;;;;;;;5016845;28;7358;-68
2022/12/07 17:25:21;;;;;;;;;;;;;;;;;;5017275;28;7157;-70
2022/12/07 17:27:47;;;;;;;;;;;;;;;;;;5016804;28;7171;-67
2022/12/07 17:30:13;;;;;;;;;;;;;;;;;;5016769;28;7151;-67
2022/12/07 17:32:56;;;;;;;;;;;;;;;;;;5016720;28;7063;-68
2022/12/07 17:35:21;;;;;;;;;;;;;;;;;;5016790;28;7139;-68
2022/12/07 17:37:55;;;;;;;;;;;;;;;;;;5016598;28;7150;-68
2022/12/07 17:40:21;;;;;;;;;;;;;;;;;;5016633;28;7311;-68
2022/12/07 17:43:09;;;;;;;;;;;;;;;;;;5016528;28;7331;-68
2022/12/07 17:45:36;;;;;;;;;;;;;;;;;;5017276;28;7463;-68
2022/12/07 17:48:04;;;;;;;;;;;;;;;;;;5016355;28;7135;-68
2022/12/07 17:59:19;;;;;;;;;;;;;;;;;;5016472;28;6688;-68
2022/12/07 18:07:52;;;;;;;;;;;;;;;;;;5015781;28;6929;-68
2022/12/07 18:10:37;;;;;;;;;;;;;;;;;;5017060;28;7238;-68
2022/12/07 18:15:47;;;;;;;;;;;;;;;;;;5016122;28;6940;-68
2022/12/07 18:18:31;;;;;;;;;;;;;;;;;;5015909;28;7404;-68
2022/12/07 18:20:57;;;;;;;;;;;;;;;;;;5015881;28;7356;-68
2022/12/07 18:26:29;;;;;;;;;;;;;;;;;;5015592;28;6749;-68
2022/12/07 18:28:55;;;;;;;;;;;;;;;;;;5015604;28;7067;-68
2022/12/07 18:31:21;;;;;;;;;;;;;;;;;;5015677;28;7341;-68
2022/12/07 18:33:47;;;;;;;;;;;;;;;;;;5015131;28;7170;-68
2022/12/07 18:36:14;;;;;;;;;;;;;;;;;;5016377;28;7153;-68
2022/12/07 18:38:42;;;;;;;;;;;;;;;;;;5015953;28;7072;-68
2022/12/07 18:41:09;;;;;;;;;;;;;;;;;;5015509;28;7219;-68
2022/12/07 18:43:35;;;;;;;;;;;;;;;;;;5015373;28;7374;-68
2022/12/07 18:46:00;;;;;;;;;;;;;;;;;;5015036;28;7552;-67
2022/12/07 18:48:55;;;;;;;;;;;;;;;;;;5015064;28;7177;-68
2022/12/07 18:51:22;;;;;;;;;;;;;;;;;;5014982;28;7226;-68
2022/12/07 18:54:10;;;;;;;;;;;;;;;;;;5015252;28;7192;-68
2022/12/07 18:56:36;;;;;;;;;;;;;;;;;;5015286;28;7115;-68
2022/12/07 19:04:50;;;;;;;;;;;;;;;;;;5015062;28;7008;-67
2022/12/07 19:07:16;;;;;;;;;;;;;;;;;;5015064;28;7388;-67
2022/12/07 19:09:45;;;;;;;;;;;;;;;;;;5014946;28;7007;-68
2022/12/07 19:12:12;;;;;;;;;;;;;;;;;;5014974;28;7566;-68
2022/12/07 19:14:37;;;;;;;;;;;;;;;;;;5015111;28;7169;-68
2022/12/07 19:17:22;;;;;;;;;;;;;;;;;;5015348;28;7164;-68
2022/12/07 19:19:48;;;;;;;;;;;;;;;;;;5014681;28;7184;-68
2022/12/07 19:22:16;;;;;;;;;;;;;;;;;;5014846;28;7375;-68
2022/12/07 19:24:54;;;;;;;;;;;;;;;;;;5015159;28;6941;-68
2022/12/07 19:27:22;;;;;;;;;;;;;;;;;;5014500;28;7021;-68
2022/12/07 19:29:48;;;;;;;;;;;;;;;;;;5014781;28;6965;-67
2022/12/07 19:32:16;;;;;;;;;;;;;;;;;;5014765;28;7088;-68
2022/12/07 19:34:43;;;;;;;;;;;;;;;;;;5014596;28;7177;-71
2022/12/07 19:37:10;;;;;;;;;;;;;;;;;;5015636;28;7115;-68
2022/12/07 19:42:39;;;;;;;;;;;;;;;;;;5014599;28;7438;-68
2022/12/07 19:45:04;;;;;;;;;;;;;;;;;;5014832;28;7380;-68
2022/12/07 19:47:30;;;;;;;;;;;;;;;;;;5018715;28;7443;-68
2022/12/07 19:49:57;;;;;;;;;;;;;;;;;;5015756;28;7135;-68
2022/12/07 19:52:22;;;;;;;;;;;;;;;;;;5018204;28;7235;-68
2022/12/07 19:54:48;;;;;;;;;;;;;;;;;;5018564;28;7127;-68
2022/12/07 19:57:15;;;;;;;;;;;;;;;;;;5018431;28;7094;-68
2022/12/07 19:59:45;;;;;;;;;;;;;;;;;;5018555;28;7153;-68
2022/12/07 20:05:14;;;;;;;;;;;;;;;;;;5018082;28;6677;-68
2022/12/07 20:07:40;;;;;;;;;;;;;;;;;;5018026;28;7178;-68
2022/12/07 20:10:06;;;;;;;;;;;;;;;;;;5018190;28;7212;-69
2022/12/07 20:15:36;;;;;;;;;;;;;;;;;;5017933;28;7045;-69
2022/12/07 20:18:19;;;;;;;;;;;;;;;;;;5018112;28;7173;-68
2022/12/07 20:20:56;;;;;;;;;;;;;;;;;;5017939;28;7113;-70
2022/12/07 20:23:39;;;;;;;;;;;;;;;;;;5017722;28;7154;-68
2022/12/07 20:26:10;;;;;;;;;;;;;;;;;;5033529;28;7092;-68
2022/12/07 20:28:37;;;;;;;;;;;;;;;;;;5053666;23;7493;-68
2022/12/07 20:31:03;;;;;;;;;;;;;;;;;;5083027;23;7369;-75
2022/12/07 20:33:29;;;;;;;;;;;;;;;;;;5095442;23;8470;-73
2022/12/07 20:38:27;;;;;;;;;;;;;;;;;;5126003;23;6992;-68
2022/12/07 20:40:59;;;;;;;;;;;;;;;;;;4980670;28;7916;-69
2022/12/07 20:43:24;;;;;;;;;;;;;;;;;;4998086;28;7184;-68
2022/12/07 20:46:02;;;;;;;;;;;;;;;;;;4998252;28;7294;-68
2022/12/07 20:48:59;;;;;;;;;;;;;;;;;;4998033;28;7079;-68
2022/12/07 20:51:26;;;;;;;;;;;;;;;;;;4997883;28;7439;-68